Аэропорт: Ленкорань. Ленкорань

ICAO: UBBL

METAR:
2020-06-01 03:00:00
UBBL 010300Z 17009KT 9000 NSC 22/13 Q1014 R33/CLRD// NOSIG RMK MT OP
METAR:
2020-05-31 23:11:00
TAF UBBL 312311Z 0100/0124 16008KT 9999 SCT100 TX28/0110Z TN16/0102Z TEMPO 0100/0104 VRB04KT 5000 BR SCT010 TEMPO 0108/0118 17014KT